Farm — LBHF — position and weather

sailwx.info

Track history (hours):
 
Tides and Currents Weather Stations Pressure Air Temp Water Temp Dewpoint Dewpoint Depression Visibility Wind Speed Wind Dir Waves Ship Positions

Farm

Last reported at 2014-Sep-17 16:33 UTC. Time now 2014-Sep-22 14:18 UTC.
Position N 69°46' E 019°05'.

Length 46 m.

Type: Law enforcement. MMSI: 257069200.

Date/timePositionNaut miles runAvg speedWind from/ knotsBaromVisibWave heightAir tempDewpointWater temp
2014-Sep-17 16:33N 69°46' E 019°05'1 0.8
2014-Sep-17 15:31N 69°45' E 019°04'3 0.5
2014-Sep-17 10:23N 69°47' E 019°10'8 9.6
2014-Sep-17 09:33N 69°41' E 018°53'6 6.1
2014-Sep-17 08:33N 69°35' E 018°51'8 7.9
2014-Sep-17 07:33N 69°42' E 019°02'3 2.8
2014-Sep-17 06:33N 69°40' E 018°59'3 3.2
2014-Sep-17 05:31N 69°43' E 019°02'2 1.8
2014-Sep-17 04:33N 69°45' E 019°03'  
2014-Sep-08 21:14N 70°44' E 023°33'4 5.4
2014-Sep-08 20:33N 70°41' E 023°25'1 1.4
2014-Sep-08 19:33N 70°41' E 023°21'1 0.9
2014-Sep-08 18:31N 70°41' E 023°18'1 0.6
2014-Sep-08 17:33N 70°41' E 023°19'2 1.4
2014-Sep-08 16:22N 70°42' E 023°22'1 1.2
2014-Sep-08 15:13N 70°44' E 023°20'2 2.5
2014-Sep-08 14:18N 70°42' E 023°26'1 1.9
2014-Sep-08 13:33N 70°41' E 023°29'2 2.1
2014-Sep-08 12:33N 70°40' E 023°32'0 0.5
2014-Sep-08 11:33N 70°40' E 023°33'0 0.2
2014-Sep-08 10:29N 70°40' E 023°33'0 0.4
2014-Sep-08 09:31N 70°40' E 023°34'1 0.1
2014-Sep-08 05:29N 70°39' E 023°35'1 1.2
2014-Sep-08 04:33N 70°39' E 023°32'1 1.2
2014-Sep-08 03:30N 70°38' E 023°28'0 0.2
2014-Sep-08 02:32N 70°38' E 023°28'1 0.2
2014-Sep-07 19:31N 70°39' E 023°31'5 4.4
2014-Sep-07 18:19N 70°34' E 023°37'  
Track history (hours):
 
Tides and Currents Weather Stations Pressure Air Temp Water Temp Dewpoint Dewpoint Depression Visibility Wind Speed Wind Dir Waves Ship Positions

Farm

Last reported at 2014-Sep-17 16:33 UTC. Time now 2014-Sep-22 14:18 UTC.
Position N 69°46' E 019°05'.

Length 46 m.

Type: Law enforcement. MMSI: 257069200.

Date/timePositionNaut miles runAvg speedWind from/ knotsBaromVisibWave heightAir tempDewpointWater temp
2014-Sep-17 16:33N 69°46' E 019°05'1 0.8
2014-Sep-17 15:31N 69°45' E 019°04'3 0.5
2014-Sep-17 10:23N 69°47' E 019°10'8 9.6
2014-Sep-17 09:33N 69°41' E 018°53'6 6.1
2014-Sep-17 08:33N 69°35' E 018°51'8 7.9
2014-Sep-17 07:33N 69°42' E 019°02'3 2.8
2014-Sep-17 06:33N 69°40' E 018°59'3 3.2
2014-Sep-17 05:31N 69°43' E 019°02'2 1.8
2014-Sep-17 04:33N 69°45' E 019°03'  
2014-Sep-08 21:14N 70°44' E 023°33'4 5.4
2014-Sep-08 20:33N 70°41' E 023°25'1 1.4
2014-Sep-08 19:33N 70°41' E 023°21'1 0.9
2014-Sep-08 18:31N 70°41' E 023°18'1 0.6
2014-Sep-08 17:33N 70°41' E 023°19'2 1.4
2014-Sep-08 16:22N 70°42' E 023°22'1 1.2
2014-Sep-08 15:13N 70°44' E 023°20'2 2.5
2014-Sep-08 14:18N 70°42' E 023°26'1 1.9
2014-Sep-08 13:33N 70°41' E 023°29'2 2.1
2014-Sep-08 12:33N 70°40' E 023°32'0 0.5
2014-Sep-08 11:33N 70°40' E 023°33'0 0.2
2014-Sep-08 10:29N 70°40' E 023°33'0 0.4
2014-Sep-08 09:31N 70°40' E 023°34'1 0.1
2014-Sep-08 05:29N 70°39' E 023°35'1 1.2
2014-Sep-08 04:33N 70°39' E 023°32'1 1.2
2014-Sep-08 03:30N 70°38' E 023°28'0 0.2
2014-Sep-08 02:32N 70°38' E 023°28'1 0.2
2014-Sep-07 19:31N 70°39' E 023°31'5 4.4
2014-Sep-07 18:19N 70°34' E 023°37'  

Dump ship's entire track history